sensor_id;sensor_type;location;lat;lon;timestamp;P1;durP1;ratioP1;P2;durP2;ratioP2
6173;SDS011;3120;48.796;9.796;2023-06-19T00:02:14;13.85;;;9.10;;
6173;SDS011;3120;48.796;9.796;2023-06-19T00:04:40;12.07;;;8.88;;
6173;SDS011;3120;48.796;9.796;2023-06-19T00:07:06;11.25;;;9.75;;
6173;SDS011;3120;48.796;9.796;2023-06-19T00:09:32;13.15;;;9.27;;
6173;SDS011;3120;48.796;9.796;2023-06-19T00:11:57;15.85;;;8.95;;
6173;SDS011;3120;48.796;9.796;2023-06-19T00:14:26;13.02;;;9.10;;
6173;SDS011;3120;48.796;9.796;2023-06-19T00:16:52;12.85;;;9.07;;
6173;SDS011;3120;48.796;9.796;2023-06-19T00:19:17;12.60;;;8.68;;
6173;SDS011;3120;48.796;9.796;2023-06-19T00:21:43;13.00;;;9.25;;
6173;SDS011;3120;48.796;9.796;2023-06-19T00:24:09;13.50;;;9.10;;
6173;SDS011;3120;48.796;9.796;2023-06-19T00:26:35;11.80;;;8.98;;
6173;SDS011;3120;48.796;9.796;2023-06-19T00:29:01;10.85;;;8.30;;
6173;SDS011;3120;48.796;9.796;2023-06-19T00:31:27;15.25;;;8.60;;
6173;SDS011;3120;48.796;9.796;2023-06-19T00:33:53;17.27;;;7.60;;
6173;SDS011;3120;48.796;9.796;2023-06-19T00:36:18;11.60;;;8.35;;
6173;SDS011;3120;48.796;9.796;2023-06-19T00:38:50;10.82;;;8.55;;
6173;SDS011;3120;48.796;9.796;2023-06-19T00:41:17;10.98;;;8.02;;
6173;SDS011;3120;48.796;9.796;2023-06-19T00:43:43;13.65;;;8.20;;
6173;SDS011;3120;48.796;9.796;2023-06-19T00:46:09;14.13;;;8.25;;
6173;SDS011;3120;48.796;9.796;2023-06-19T00:48:35;12.68;;;8.10;;
6173;SDS011;3120;48.796;9.796;2023-06-19T00:51:02;9.63;;;7.40;;
6173;SDS011;3120;48.796;9.796;2023-06-19T00:53:27;9.85;;;7.20;;
6173;SDS011;3120;48.796;9.796;2023-06-19T00:55:55;14.88;;;7.90;;
6173;SDS011;3120;48.796;9.796;2023-06-19T00:58:22;11.05;;;6.75;;
6173;SDS011;3120;48.796;9.796;2023-06-19T01:00:48;9.43;;;7.32;;
6173;SDS011;3120;48.796;9.796;2023-06-19T01:03:14;10.45;;;7.40;;
6173;SDS011;3120;48.796;9.796;2023-06-19T01:05:42;7.63;;;6.80;;
6173;SDS011;3120;48.796;9.796;2023-06-19T01:11:20;14.45;;;7.70;;
6173;SDS011;3120;48.796;9.796;2023-06-19T01:13:49;9.48;;;7.13;;
6173;SDS011;3120;48.796;9.796;2023-06-19T01:16:19;13.80;;;7.03;;
6173;SDS011;3120;48.796;9.796;2023-06-19T01:18:46;11.65;;;7.35;;
6173;SDS011;3120;48.796;9.796;2023-06-19T01:21:14;17.27;;;7.63;;
6173;SDS011;3120;48.796;9.796;2023-06-19T01:23:42;13.25;;;7.63;;
6173;SDS011;3120;48.796;9.796;2023-06-19T01:26:08;9.45;;;7.47;;
6173;SDS011;3120;48.796;9.796;2023-06-19T01:28:35;11.85;;;7.50;;
6173;SDS011;3120;48.796;9.796;2023-06-19T01:31:02;10.43;;;7.25;;
6173;SDS011;3120;48.796;9.796;2023-06-19T01:33:42;11.95;;;9.05;;
6173;SDS011;3120;48.796;9.796;2023-06-19T01:36:10;17.88;;;9.77;;
6173;SDS011;3120;48.796;9.796;2023-06-19T01:38:36;13.00;;;9.57;;
6173;SDS011;3120;48.796;9.796;2023-06-19T01:41:03;16.33;;;10.70;;
6173;SDS011;3120;48.796;9.796;2023-06-19T01:43:31;13.90;;;10.23;;
6173;SDS011;3120;48.796;9.796;2023-06-19T01:45:58;14.82;;;11.00;;
6173;SDS011;3120;48.796;9.796;2023-06-19T01:48:24;15.13;;;10.80;;
6173;SDS011;3120;48.796;9.796;2023-06-19T01:50:50;14.05;;;10.35;;
6173;SDS011;3120;48.796;9.796;2023-06-19T01:53:16;14.45;;;10.25;;
6173;SDS011;3120;48.796;9.796;2023-06-19T01:55:42;12.80;;;9.52;;
6173;SDS011;3120;48.796;9.796;2023-06-19T01:58:18;13.55;;;10.27;;
6173;SDS011;3120;48.796;9.796;2023-06-19T02:00:44;13.18;;;7.93;;
6173;SDS011;3120;48.796;9.796;2023-06-19T02:03:09;12.45;;;8.90;;
6173;SDS011;3120;48.796;9.796;2023-06-19T02:05:35;15.77;;;8.10;;
6173;SDS011;3120;48.796;9.796;2023-06-19T02:08:04;12.68;;;7.45;;
6173;SDS011;3120;48.796;9.796;2023-06-19T02:10:30;11.27;;;7.35;;
6173;SDS011;3120;48.796;9.796;2023-06-19T02:12:56;11.70;;;7.10;;
6173;SDS011;3120;48.796;9.796;2023-06-19T02:15:21;12.18;;;7.65;;
6173;SDS011;3120;48.796;9.796;2023-06-19T02:17:47;11.73;;;7.30;;
6173;SDS011;3120;48.796;9.796;2023-06-19T02:20:12;8.75;;;6.50;;
6173;SDS011;3120;48.796;9.796;2023-06-19T02:22:40;10.40;;;5.97;;
6173;SDS011;3120;48.796;9.796;2023-06-19T02:25:06;11.77;;;6.45;;
6173;SDS011;3120;48.796;9.796;2023-06-19T02:27:32;11.43;;;7.00;;
6173;SDS011;3120;48.796;9.796;2023-06-19T02:29:58;9.82;;;6.55;;
6173;SDS011;3120;48.796;9.796;2023-06-19T02:32:23;9.57;;;6.32;;
6173;SDS011;3120;48.796;9.796;2023-06-19T02:34:49;14.63;;;6.35;;
6173;SDS011;3120;48.796;9.796;2023-06-19T02:37:15;8.02;;;6.10;;
6173;SDS011;3120;48.796;9.796;2023-06-19T02:39:40;11.05;;;6.20;;
6173;SDS011;3120;48.796;9.796;2023-06-19T02:42:06;8.30;;;5.78;;
6173;SDS011;3120;48.796;9.796;2023-06-19T02:44:32;9.27;;;5.93;;
6173;SDS011;3120;48.796;9.796;2023-06-19T02:46:58;9.18;;;5.90;;
6173;SDS011;3120;48.796;9.796;2023-06-19T02:49:23;11.73;;;6.53;;
6173;SDS011;3120;48.796;9.796;2023-06-19T02:51:49;13.85;;;6.78;;
6173;SDS011;3120;48.796;9.796;2023-06-19T02:54:14;11.13;;;6.95;;
6173;SDS011;3120;48.796;9.796;2023-06-19T02:56:52;15.05;;;6.63;;
6173;SDS011;3120;48.796;9.796;2023-06-19T02:59:18;8.38;;;6.53;;
6173;SDS011;3120;48.796;9.796;2023-06-19T03:01:43;12.00;;;6.93;;
6173;SDS011;3120;48.796;9.796;2023-06-19T03:04:09;15.48;;;6.80;;
6173;SDS011;3120;48.796;9.796;2023-06-19T03:06:35;10.50;;;6.75;;
6173;SDS011;3120;48.796;9.796;2023-06-19T03:09:04;8.88;;;5.55;;
6173;SDS011;3120;48.796;9.796;2023-06-19T03:11:36;9.77;;;6.55;;
6173;SDS011;3120;48.796;9.796;2023-06-19T03:14:03;11.77;;;6.63;;
6173;SDS011;3120;48.796;9.796;2023-06-19T03:16:32;10.00;;;6.70;;
6173;SDS011;3120;48.796;9.796;2023-06-19T03:18:58;13.52;;;7.22;;
6173;SDS011;3120;48.796;9.796;2023-06-19T03:21:24;11.45;;;7.68;;
6173;SDS011;3120;48.796;9.796;2023-06-19T03:23:49;9.05;;;7.10;;
6173;SDS011;3120;48.796;9.796;2023-06-19T03:26:15;12.38;;;6.90;;
6173;SDS011;3120;48.796;9.796;2023-06-19T03:28:40;10.82;;;6.78;;
6173;SDS011;3120;48.796;9.796;2023-06-19T03:31:06;10.02;;;7.10;;
6173;SDS011;3120;48.796;9.796;2023-06-19T03:33:31;9.43;;;6.90;;
6173;SDS011;3120;48.796;9.796;2023-06-19T03:35:57;10.65;;;6.63;;
6173;SDS011;3120;48.796;9.796;2023-06-19T03:38:23;14.20;;;6.57;;
6173;SDS011;3120;48.796;9.796;2023-06-19T03:43:28;9.60;;;6.90;;
6173;SDS011;3120;48.796;9.796;2023-06-19T03:45:54;12.48;;;7.32;;
6173;SDS011;3120;48.796;9.796;2023-06-19T03:48:20;11.63;;;6.85;;
6173;SDS011;3120;48.796;9.796;2023-06-19T03:50:45;12.02;;;6.75;;
6173;SDS011;3120;48.796;9.796;2023-06-19T03:53:11;10.43;;;7.07;;
6173;SDS011;3120;48.796;9.796;2023-06-19T03:55:36;11.00;;;6.35;;
6173;SDS011;3120;48.796;9.796;2023-06-19T03:58:02;11.32;;;7.55;;
6173;SDS011;3120;48.796;9.796;2023-06-19T04:00:28;13.85;;;6.97;;
6173;SDS011;3120;48.796;9.796;2023-06-19T04:02:53;12.48;;;7.00;;
6173;SDS011;3120;48.796;9.796;2023-06-19T04:05:19;10.02;;;6.55;;
6173;SDS011;3120;48.796;9.796;2023-06-19T04:07:45;9.52;;;6.63;;
6173;SDS011;3120;48.796;9.796;2023-06-19T04:10:11;19.17;;;6.10;;
6173;SDS011;3120;48.796;9.796;2023-06-19T04:12:36;13.50;;;6.03;;
6173;SDS011;3120;48.796;9.796;2023-06-19T04:15:02;8.95;;;6.35;;
6173;SDS011;3120;48.796;9.796;2023-06-19T04:17:28;11.45;;;5.50;;
6173;SDS011;3120;48.796;9.796;2023-06-19T04:19:54;10.95;;;4.88;;
6173;SDS011;3120;48.796;9.796;2023-06-19T04:22:20;5.97;;;5.32;;
6173;SDS011;3120;48.796;9.796;2023-06-19T04:24:45;6.47;;;4.10;;
6173;SDS011;3120;48.796;9.796;2023-06-19T04:27:11;6.70;;;4.78;;
6173;SDS011;3120;48.796;9.796;2023-06-19T04:29:36;6.72;;;4.65;;
6173;SDS011;3120;48.796;9.796;2023-06-19T04:32:02;9.90;;;4.90;;
6173;SDS011;3120;48.796;9.796;2023-06-19T04:34:35;6.00;;;4.82;;
6173;SDS011;3120;48.796;9.796;2023-06-19T04:37:01;9.18;;;5.15;;
6173;SDS011;3120;48.796;9.796;2023-06-19T04:39:27;7.45;;;5.28;;
6173;SDS011;3120;48.796;9.796;2023-06-19T04:41:52;8.02;;;5.13;;
6173;SDS011;3120;48.796;9.796;2023-06-19T04:44:18;10.90;;;5.45;;
6173;SDS011;3120;48.796;9.796;2023-06-19T04:46:43;9.38;;;5.28;;
6173;SDS011;3120;48.796;9.796;2023-06-19T04:49:09;8.30;;;5.55;;
6173;SDS011;3120;48.796;9.796;2023-06-19T04:51:34;17.42;;;5.30;;
6173;SDS011;3120;48.796;9.796;2023-06-19T04:54:00;8.60;;;5.13;;
6173;SDS011;3120;48.796;9.796;2023-06-19T04:56:27;13.32;;;5.30;;
6173;SDS011;3120;48.796;9.796;2023-06-19T04:58:53;8.85;;;4.50;;
6173;SDS011;3120;48.796;9.796;2023-06-19T05:01:22;9.05;;;4.30;;
6173;SDS011;3120;48.796;9.796;2023-06-19T05:03:52;9.00;;;4.95;;
6173;SDS011;3120;48.796;9.796;2023-06-19T05:06:19;9.00;;;5.40;;
6173;SDS011;3120;48.796;9.796;2023-06-19T05:08:45;8.70;;;4.38;;
6173;SDS011;3120;48.796;9.796;2023-06-19T05:11:11;8.30;;;4.63;;
6173;SDS011;3120;48.796;9.796;2023-06-19T05:13:36;6.97;;;4.57;;
6173;SDS011;3120;48.796;9.796;2023-06-19T05:16:02;12.25;;;4.72;;
6173;SDS011;3120;48.796;9.796;2023-06-19T05:18:27;9.65;;;4.75;;
6173;SDS011;3120;48.796;9.796;2023-06-19T05:20:53;9.88;;;4.80;;
6173;SDS011;3120;48.796;9.796;2023-06-19T05:23:18;6.38;;;4.72;;
6173;SDS011;3120;48.796;9.796;2023-06-19T05:25:44;5.38;;;4.47;;
6173;SDS011;3120;48.796;9.796;2023-06-19T05:28:10;6.97;;;4.90;;
6173;SDS011;3120;48.796;9.796;2023-06-19T05:30:36;9.48;;;4.78;;
6173;SDS011;3120;48.796;9.796;2023-06-19T05:33:02;9.63;;;4.20;;
6173;SDS011;3120;48.796;9.796;2023-06-19T05:35:35;6.25;;;4.20;;
6173;SDS011;3120;48.796;9.796;2023-06-19T05:38:02;4.53;;;3.97;;
6173;SDS011;3120;48.796;9.796;2023-06-19T05:40:27;8.55;;;4.60;;
6173;SDS011;3120;48.796;9.796;2023-06-19T05:42:53;7.75;;;4.07;;
6173;SDS011;3120;48.796;9.796;2023-06-19T05:45:20;6.75;;;4.07;;
6173;SDS011;3120;48.796;9.796;2023-06-19T05:47:47;7.78;;;4.47;;
6173;SDS011;3120;48.796;9.796;2023-06-19T05:50:12;7.57;;;4.07;;
6173;SDS011;3120;48.796;9.796;2023-06-19T05:52:38;6.30;;;4.30;;
6173;SDS011;3120;48.796;9.796;2023-06-19T05:55:07;9.93;;;4.72;;
6173;SDS011;3120;48.796;9.796;2023-06-19T05:57:34;4.40;;;3.97;;
6173;SDS011;3120;48.796;9.796;2023-06-19T05:59:59;8.40;;;4.28;;
6173;SDS011;3120;48.796;9.796;2023-06-19T06:02:26;8.52;;;4.22;;
6173;SDS011;3120;48.796;9.796;2023-06-19T06:04:53;9.75;;;3.88;;
6173;SDS011;3120;48.796;9.796;2023-06-19T06:07:21;8.05;;;4.18;;
6173;SDS011;3120;48.796;9.796;2023-06-19T06:09:47;4.28;;;3.33;;
6173;SDS011;3120;48.796;9.796;2023-06-19T06:12:13;4.38;;;2.80;;
6173;SDS011;3120;48.796;9.796;2023-06-19T06:14:40;7.03;;;2.90;;
6173;SDS011;3120;48.796;9.796;2023-06-19T06:17:07;6.05;;;3.20;;
6173;SDS011;3120;48.796;9.796;2023-06-19T06:19:33;4.68;;;3.10;;
6173;SDS011;3120;48.796;9.796;2023-06-19T06:22:07;5.13;;;2.92;;
6173;SDS011;3120;48.796;9.796;2023-06-19T06:24:33;7.55;;;3.00;;
6173;SDS011;3120;48.796;9.796;2023-06-19T06:27:26;5.22;;;3.10;;
6173;SDS011;3120;48.796;9.796;2023-06-19T06:29:55;3.13;;;2.60;;
6173;SDS011;3120;48.796;9.796;2023-06-19T06:32:30;5.30;;;3.00;;
6173;SDS011;3120;48.796;9.796;2023-06-19T06:34:57;3.10;;;2.45;;
6173;SDS011;3120;48.796;9.796;2023-06-19T06:37:44;4.30;;;2.88;;
6173;SDS011;3120;48.796;9.796;2023-06-19T06:43:24;4.13;;;2.65;;
6173;SDS011;3120;48.796;9.796;2023-06-19T06:45:50;3.78;;;2.70;;
6173;SDS011;3120;48.796;9.796;2023-06-19T06:49:05;2.90;;;2.13;;
6173;SDS011;3120;48.796;9.796;2023-06-19T06:52:01;3.25;;;2.10;;
6173;SDS011;3120;48.796;9.796;2023-06-19T06:58:00;2.03;;;1.90;;
6173;SDS011;3120;48.796;9.796;2023-06-19T07:00:26;2.40;;;1.92;;
6173;SDS011;3120;48.796;9.796;2023-06-19T07:02:52;2.53;;;1.60;;
6173;SDS011;3120;48.796;9.796;2023-06-19T07:05:36;1.80;;;1.67;;
6173;SDS011;3120;48.796;9.796;2023-06-19T07:11:32;2.13;;;1.70;;
6173;SDS011;3120;48.796;9.796;2023-06-19T07:14:29;2.72;;;1.60;;
6173;SDS011;3120;48.796;9.796;2023-06-19T07:17:11;2.55;;;1.52;;
6173;SDS011;3120;48.796;9.796;2023-06-19T07:22:40;4.53;;;1.75;;
6173;SDS011;3120;48.796;9.796;2023-06-19T07:25:06;2.47;;;1.83;;
6173;SDS011;3120;48.796;9.796;2023-06-19T07:27:33;1.85;;;1.65;;
6173;SDS011;3120;48.796;9.796;2023-06-19T07:30:01;2.75;;;1.70;;
6173;SDS011;3120;48.796;9.796;2023-06-19T07:32:26;3.15;;;1.67;;
6173;SDS011;3120;48.796;9.796;2023-06-19T07:34:52;2.60;;;1.45;;
6173;SDS011;3120;48.796;9.796;2023-06-19T07:37:18;3.38;;;1.30;;
6173;SDS011;3120;48.796;9.796;2023-06-19T07:39:48;3.80;;;1.38;;
6173;SDS011;3120;48.796;9.796;2023-06-19T07:50:01;2.30;;;1.08;;
6173;SDS011;3120;48.796;9.796;2023-06-19T07:52:27;1.30;;;1.13;;
6173;SDS011;3120;48.796;9.796;2023-06-19T07:55:11;2.85;;;1.20;;
6173;SDS011;3120;48.796;9.796;2023-06-19T07:57:36;1.60;;;1.50;;
6173;SDS011;3120;48.796;9.796;2023-06-19T08:00:08;2.90;;;1.40;;
6173;SDS011;3120;48.796;9.796;2023-06-19T08:02:38;2.80;;;1.38;;
6173;SDS011;3120;48.796;9.796;2023-06-19T08:05:07;1.30;;;1.20;;
6173;SDS011;3120;48.796;9.796;2023-06-19T08:07:36;2.85;;;1.65;;
6173;SDS011;3120;48.796;9.796;2023-06-19T08:10:02;4.03;;;1.65;;
6173;SDS011;3120;48.796;9.796;2023-06-19T08:12:29;3.03;;;1.70;;
6173;SDS011;3120;48.796;9.796;2023-06-19T08:14:55;3.67;;;1.60;;
6173;SDS011;3120;48.796;9.796;2023-06-19T08:17:20;3.95;;;1.80;;
6173;SDS011;3120;48.796;9.796;2023-06-19T08:19:47;3.13;;;1.77;;
6173;SDS011;3120;48.796;9.796;2023-06-19T08:22:13;2.10;;;1.55;;
6173;SDS011;3120;48.796;9.796;2023-06-19T08:24:38;2.17;;;1.70;;
6173;SDS011;3120;48.796;9.796;2023-06-19T08:27:09;1.80;;;1.58;;
6173;SDS011;3120;48.796;9.796;2023-06-19T08:29:34;2.30;;;1.63;;
6173;SDS011;3120;48.796;9.796;2023-06-19T08:32:00;4.55;;;1.52;;
6173;SDS011;3120;48.796;9.796;2023-06-19T08:34:26;1.67;;;1.58;;
6173;SDS011;3120;48.796;9.796;2023-06-19T08:36:52;4.80;;;1.80;;
6173;SDS011;3120;48.796;9.796;2023-06-19T08:39:19;3.85;;;1.50;;
6173;SDS011;3120;48.796;9.796;2023-06-19T08:44:51;1.45;;;1.35;;
6173;SDS011;3120;48.796;9.796;2023-06-19T08:47:18;2.40;;;1.60;;
6173;SDS011;3120;48.796;9.796;2023-06-19T08:49:44;3.55;;;1.67;;
6173;SDS011;3120;48.796;9.796;2023-06-19T08:52:10;2.30;;;1.42;;
6173;SDS011;3120;48.796;9.796;2023-06-19T08:54:36;3.30;;;1.23;;
6173;SDS011;3120;48.796;9.796;2023-06-19T08:57:09;2.53;;;1.50;;
6173;SDS011;3120;48.796;9.796;2023-06-19T08:59:58;3.03;;;1.52;;
6173;SDS011;3120;48.796;9.796;2023-06-19T09:02:35;4.80;;;1.58;;
6173;SDS011;3120;48.796;9.796;2023-06-19T09:05:09;1.48;;;1.23;;
6173;SDS011;3120;48.796;9.796;2023-06-19T09:07:42;7.82;;;1.70;;
6173;SDS011;3120;48.796;9.796;2023-06-19T09:10:15;2.33;;;1.60;;
6173;SDS011;3120;48.796;9.796;2023-06-19T09:12:43;3.17;;;1.40;;
6173;SDS011;3120;48.796;9.796;2023-06-19T09:15:21;2.78;;;1.40;;
6173;SDS011;3120;48.796;9.796;2023-06-19T09:17:58;2.17;;;1.60;;
6173;SDS011;3120;48.796;9.796;2023-06-19T09:20:32;5.65;;;1.63;;
6173;SDS011;3120;48.796;9.796;2023-06-19T09:22:59;1.35;;;1.25;;
6173;SDS011;3120;48.796;9.796;2023-06-19T09:25:25;3.10;;;1.60;;
6173;SDS011;3120;48.796;9.796;2023-06-19T09:27:53;3.50;;;1.35;;
6173;SDS011;3120;48.796;9.796;2023-06-19T09:30:19;2.22;;;1.40;;
6173;SDS011;3120;48.796;9.796;2023-06-19T09:32:45;4.25;;;1.40;;
6173;SDS011;3120;48.796;9.796;2023-06-19T09:35:11;4.03;;;1.30;;
6173;SDS011;3120;48.796;9.796;2023-06-19T09:37:39;1.58;;;1.38;;
6173;SDS011;3120;48.796;9.796;2023-06-19T09:40:06;4.28;;;2.00;;
6173;SDS011;3120;48.796;9.796;2023-06-19T09:42:35;1.95;;;1.63;;
6173;SDS011;3120;48.796;9.796;2023-06-19T09:45:04;1.60;;;1.45;;
6173;SDS011;3120;48.796;9.796;2023-06-19T09:47:44;6.82;;;1.52;;
6173;SDS011;3120;48.796;9.796;2023-06-19T09:50:13;1.17;;;1.08;;
6173;SDS011;3120;48.796;9.796;2023-06-19T09:52:41;1.30;;;1.20;;
6173;SDS011;3120;48.796;9.796;2023-06-19T09:55:08;1.45;;;1.17;;
6173;SDS011;3120;48.796;9.796;2023-06-19T09:57:38;1.92;;;1.20;;
6173;SDS011;3120;48.796;9.796;2023-06-19T10:00:06;2.83;;;1.25;;
6173;SDS011;3120;48.796;9.796;2023-06-19T10:02:42;1.50;;;1.40;;
6173;SDS011;3120;48.796;9.796;2023-06-19T10:05:09;1.45;;;1.20;;
6173;SDS011;3120;48.796;9.796;2023-06-19T10:07:40;4.28;;;1.30;;
6173;SDS011;3120;48.796;9.796;2023-06-19T10:10:29;0.95;;;0.90;;
6173;SDS011;3120;48.796;9.796;2023-06-19T10:16:49;3.42;;;0.90;;
6173;SDS011;3120;48.796;9.796;2023-06-19T10:22:50;1.25;;;1.00;;
6173;SDS011;3120;48.796;9.796;2023-06-19T10:32:58;5.38;;;1.10;;
6173;SDS011;3120;48.796;9.796;2023-06-19T10:43:05;0.70;;;0.70;;
6173;SDS011;3120;48.796;9.796;2023-06-19T10:56:46;1.08;;;0.98;;
6173;SDS011;3120;48.796;9.796;2023-06-19T11:06:56;2.28;;;0.80;;
6173;SDS011;3120;48.796;9.796;2023-06-19T11:13:33;1.25;;;1.05;;
6173;SDS011;3120;48.796;9.796;2023-06-19T11:19:50;1.25;;;0.90;;
6173;SDS011;3120;48.796;9.796;2023-06-19T11:47:25;1.77;;;1.20;;
6173;SDS011;3120;48.796;9.796;2023-06-19T11:58:56;0.98;;;0.90;;
6173;SDS011;3120;48.796;9.796;2023-06-19T13:01:13;3.05;;;0.85;;
6173;SDS011;3120;48.796;9.796;2023-06-19T13:03:39;2.78;;;0.65;;
6173;SDS011;3120;48.796;9.796;2023-06-19T13:06:04;1.00;;;0.60;;
6173;SDS011;3120;48.796;9.796;2023-06-19T13:08:30;0.95;;;0.88;;
6173;SDS011;3120;48.796;9.796;2023-06-19T13:10:56;0.70;;;0.70;;
6173;SDS011;3120;48.796;9.796;2023-06-19T13:13:22;1.83;;;0.80;;
6173;SDS011;3120;48.796;9.796;2023-06-19T13:15:47;2.38;;;0.70;;
6173;SDS011;3120;48.796;9.796;2023-06-19T13:18:13;2.08;;;0.52;;
6173;SDS011;3120;48.796;9.796;2023-06-19T13:20:40;1.00;;;0.70;;
6173;SDS011;3120;48.796;9.796;2023-06-19T13:23:05;0.50;;;0.50;;
6173;SDS011;3120;48.796;9.796;2023-06-19T13:25:31;0.40;;;0.40;;
6173;SDS011;3120;48.796;9.796;2023-06-19T13:27:57;3.83;;;0.80;;
6173;SDS011;3120;48.796;9.796;2023-06-19T13:30:23;1.83;;;0.60;;
6173;SDS011;3120;48.796;9.796;2023-06-19T13:32:51;2.03;;;0.80;;
6173;SDS011;3120;48.796;9.796;2023-06-19T13:35:16;4.07;;;0.65;;
6173;SDS011;3120;48.796;9.796;2023-06-19T13:37:42;1.52;;;0.70;;
6173;SDS011;3120;48.796;9.796;2023-06-19T13:40:07;1.80;;;0.82;;
6173;SDS011;3120;48.796;9.796;2023-06-19T13:42:33;1.02;;;0.80;;
6173;SDS011;3120;48.796;9.796;2023-06-19T13:45:03;0.90;;;0.57;;
6173;SDS011;3120;48.796;9.796;2023-06-19T13:47:41;0.60;;;0.60;;
6173;SDS011;3120;48.796;9.796;2023-06-19T13:50:07;2.00;;;0.70;;
6173;SDS011;3120;48.796;9.796;2023-06-19T13:52:34;0.60;;;0.60;;
6173;SDS011;3120;48.796;9.796;2023-06-19T13:54:59;1.17;;;0.70;;
6173;SDS011;3120;48.796;9.796;2023-06-19T13:57:27;0.70;;;0.65;;
6173;SDS011;3120;48.796;9.796;2023-06-19T13:59:53;3.65;;;0.70;;
6173;SDS011;3120;48.796;9.796;2023-06-19T14:02:18;1.33;;;0.73;;
6173;SDS011;3120;48.796;9.796;2023-06-19T14:04:44;2.08;;;0.70;;
6173;SDS011;3120;48.796;9.796;2023-06-19T14:07:09;3.25;;;0.70;;
6173;SDS011;3120;48.796;9.796;2023-06-19T14:09:35;1.15;;;0.95;;
6173;SDS011;3120;48.796;9.796;2023-06-19T14:12:01;4.10;;;0.90;;
6173;SDS011;3120;48.796;9.796;2023-06-19T14:14:26;2.85;;;0.88;;
6173;SDS011;3120;48.796;9.796;2023-06-19T14:16:52;6.05;;;0.70;;
6173;SDS011;3120;48.796;9.796;2023-06-19T14:19:18;0.95;;;0.60;;
6173;SDS011;3120;48.796;9.796;2023-06-19T14:21:43;0.77;;;0.75;;
6173;SDS011;3120;48.796;9.796;2023-06-19T14:24:09;1.15;;;1.05;;
6173;SDS011;3120;48.796;9.796;2023-06-19T14:26:35;2.88;;;0.90;;
6173;SDS011;3120;48.796;9.796;2023-06-19T14:29:01;0.95;;;0.70;;
6173;SDS011;3120;48.796;9.796;2023-06-19T14:31:27;1.00;;;0.90;;
6173;SDS011;3120;48.796;9.796;2023-06-19T14:33:53;0.63;;;0.60;;
6173;SDS011;3120;48.796;9.796;2023-06-19T14:36:19;2.20;;;0.70;;
6173;SDS011;3120;48.796;9.796;2023-06-19T14:38:44;1.33;;;1.10;;
6173;SDS011;3120;48.796;9.796;2023-06-19T14:41:10;0.90;;;0.90;;
6173;SDS011;3120;48.796;9.796;2023-06-19T14:43:35;1.30;;;0.80;;
6173;SDS011;3120;48.796;9.796;2023-06-19T14:46:01;1.65;;;1.05;;
6173;SDS011;3120;48.796;9.796;2023-06-19T14:48:32;7.85;;;0.98;;
6173;SDS011;3120;48.796;9.796;2023-06-19T14:50:57;2.15;;;0.93;;
6173;SDS011;3120;48.796;9.796;2023-06-19T14:53:23;0.85;;;0.85;;
6173;SDS011;3120;48.796;9.796;2023-06-19T14:55:49;2.42;;;0.93;;
6173;SDS011;3120;48.796;9.796;2023-06-19T14:58:14;0.90;;;0.82;;
6173;SDS011;3120;48.796;9.796;2023-06-19T15:00:40;1.13;;;1.10;;
6173;SDS011;3120;48.796;9.796;2023-06-19T15:03:06;3.08;;;0.80;;
6173;SDS011;3120;48.796;9.796;2023-06-19T15:05:32;1.70;;;0.90;;
6173;SDS011;3120;48.796;9.796;2023-06-19T15:07:58;5.60;;;1.00;;
6173;SDS011;3120;48.796;9.796;2023-06-19T15:10:25;2.53;;;1.10;;
6173;SDS011;3120;48.796;9.796;2023-06-19T15:12:51;1.58;;;1.10;;
6173;SDS011;3120;48.796;9.796;2023-06-19T15:15:17;0.98;;;0.95;;
6173;SDS011;3120;48.796;9.796;2023-06-19T15:17:42;2.55;;;1.00;;
6173;SDS011;3120;48.796;9.796;2023-06-19T15:20:08;2.63;;;1.23;;
6173;SDS011;3120;48.796;9.796;2023-06-19T15:22:34;3.13;;;1.05;;
6173;SDS011;3120;48.796;9.796;2023-06-19T15:25:01;1.00;;;1.00;;
6173;SDS011;3120;48.796;9.796;2023-06-19T15:27:27;1.20;;;1.00;;
6173;SDS011;3120;48.796;9.796;2023-06-19T15:29:53;3.20;;;1.17;;
6173;SDS011;3120;48.796;9.796;2023-06-19T15:32:19;1.30;;;1.20;;
6173;SDS011;3120;48.796;9.796;2023-06-19T15:34:44;2.08;;;1.30;;
6173;SDS011;3120;48.796;9.796;2023-06-19T15:37:10;2.95;;;1.15;;
6173;SDS011;3120;48.796;9.796;2023-06-19T15:39:36;1.45;;;1.27;;
6173;SDS011;3120;48.796;9.796;2023-06-19T15:42:02;2.03;;;1.40;;
6173;SDS011;3120;48.796;9.796;2023-06-19T15:44:28;2.08;;;1.10;;
6173;SDS011;3120;48.796;9.796;2023-06-19T15:46:53;5.20;;;1.48;;
6173;SDS011;3120;48.796;9.796;2023-06-19T15:49:19;1.40;;;1.30;;
6173;SDS011;3120;48.796;9.796;2023-06-19T15:51:44;2.25;;;1.13;;
6173;SDS011;3120;48.796;9.796;2023-06-19T15:54:10;4.85;;;1.13;;
6173;SDS011;3120;48.796;9.796;2023-06-19T15:56:35;3.85;;;1.20;;
6173;SDS011;3120;48.796;9.796;2023-06-19T15:59:04;1.30;;;1.20;;
6173;SDS011;3120;48.796;9.796;2023-06-19T16:01:29;4.55;;;1.20;;
6173;SDS011;3120;48.796;9.796;2023-06-19T16:03:55;5.13;;;1.60;;
6173;SDS011;3120;48.796;9.796;2023-06-19T16:06:21;3.08;;;1.60;;
6173;SDS011;3120;48.796;9.796;2023-06-19T16:08:46;3.20;;;1.50;;
6173;SDS011;3120;48.796;9.796;2023-06-19T16:11:13;1.38;;;1.20;;
6173;SDS011;3120;48.796;9.796;2023-06-19T16:13:39;1.13;;;0.93;;
6173;SDS011;3120;48.796;9.796;2023-06-19T16:16:04;1.08;;;1.00;;
6173;SDS011;3120;48.796;9.796;2023-06-19T16:18:30;1.67;;;1.58;;
6173;SDS011;3120;48.796;9.796;2023-06-19T16:20:55;6.75;;;1.40;;
6173;SDS011;3120;48.796;9.796;2023-06-19T16:23:21;2.00;;;1.35;;
6173;SDS011;3120;48.796;9.796;2023-06-19T16:25:46;3.25;;;1.73;;
6173;SDS011;3120;48.796;9.796;2023-06-19T16:28:12;6.03;;;1.48;;
6173;SDS011;3120;48.796;9.796;2023-06-19T16:30:38;8.35;;;1.50;;
6173;SDS011;3120;48.796;9.796;2023-06-19T16:33:03;3.85;;;1.50;;
6173;SDS011;3120;48.796;9.796;2023-06-19T16:35:29;2.10;;;1.58;;
6173;SDS011;3120;48.796;9.796;2023-06-19T16:37:54;1.67;;;1.58;;
6173;SDS011;3120;48.796;9.796;2023-06-19T16:40:21;4.28;;;1.80;;
6173;SDS011;3120;48.796;9.796;2023-06-19T16:42:50;5.40;;;1.98;;
6173;SDS011;3120;48.796;9.796;2023-06-19T16:45:16;1.63;;;1.50;;
6173;SDS011;3120;48.796;9.796;2023-06-19T16:47:42;5.72;;;1.58;;
6173;SDS011;3120;48.796;9.796;2023-06-19T16:50:08;5.03;;;2.25;;
6173;SDS011;3120;48.796;9.796;2023-06-19T16:52:46;5.28;;;2.13;;
6173;SDS011;3120;48.796;9.796;2023-06-19T16:55:13;2.35;;;1.73;;
6173;SDS011;3120;48.796;9.796;2023-06-19T16:57:39;2.47;;;1.40;;
6173;SDS011;3120;48.796;9.796;2023-06-19T17:00:05;15.82;;;2.45;;
6173;SDS011;3120;48.796;9.796;2023-06-19T17:02:31;10.65;;;2.10;;
6173;SDS011;3120;48.796;9.796;2023-06-19T17:04:58;12.70;;;2.50;;
6173;SDS011;3120;48.796;9.796;2023-06-19T17:07:23;4.75;;;2.00;;
6173;SDS011;3120;48.796;9.796;2023-06-19T17:09:57;4.55;;;2.10;;
6173;SDS011;3120;48.796;9.796;2023-06-19T17:12:22;4.68;;;2.08;;
6173;SDS011;3120;48.796;9.796;2023-06-19T17:14:57;6.38;;;2.10;;
6173;SDS011;3120;48.796;9.796;2023-06-19T17:17:25;4.47;;;2.40;;
6173;SDS011;3120;48.796;9.796;2023-06-19T17:19:52;9.45;;;2.85;;
6173;SDS011;3120;48.796;9.796;2023-06-19T17:22:31;6.70;;;2.78;;
6173;SDS011;3120;48.796;9.796;2023-06-19T17:25:00;9.95;;;2.55;;
6173;SDS011;3120;48.796;9.796;2023-06-19T17:27:27;2.45;;;1.92;;
6173;SDS011;3120;48.796;9.796;2023-06-19T17:29:53;7.50;;;2.47;;
6173;SDS011;3120;48.796;9.796;2023-06-19T17:32:20;5.78;;;2.83;;
6173;SDS011;3120;48.796;9.796;2023-06-19T17:34:56;2.70;;;2.30;;
6173;SDS011;3120;48.796;9.796;2023-06-19T17:37:22;4.50;;;2.53;;
6173;SDS011;3120;48.796;9.796;2023-06-19T17:39:48;3.78;;;2.22;;
6173;SDS011;3120;48.796;9.796;2023-06-19T17:42:14;4.50;;;2.50;;
6173;SDS011;3120;48.796;9.796;2023-06-19T17:44:40;11.52;;;3.10;;
6173;SDS011;3120;48.796;9.796;2023-06-19T17:47:05;4.78;;;2.33;;
6173;SDS011;3120;48.796;9.796;2023-06-19T17:49:32;4.90;;;2.28;;
6173;SDS011;3120;48.796;9.796;2023-06-19T17:51:58;4.88;;;2.20;;
6173;SDS011;3120;48.796;9.796;2023-06-19T17:54:24;7.68;;;2.42;;
6173;SDS011;3120;48.796;9.796;2023-06-19T17:56:58;7.50;;;2.50;;
6173;SDS011;3120;48.796;9.796;2023-06-19T18:01:53;16.08;;;2.85;;
6173;SDS011;3120;48.796;9.796;2023-06-19T18:04:19;4.18;;;2.30;;
6173;SDS011;3120;48.796;9.796;2023-06-19T18:06:44;6.28;;;2.10;;
6173;SDS011;3120;48.796;9.796;2023-06-19T18:09:13;9.52;;;3.45;;
6173;SDS011;3120;48.796;9.796;2023-06-19T18:11:41;4.90;;;2.85;;